Time;durP1;ratioP1;P1;durP2;ratioP2;P2;SDS_P1;SDS_P2;PMS_P1;PMS_P2;Temp;Humidity;BMP_temperature;BMP_pressure;BME280_temperature;BME280_humidity;BME280_pressure;Samples;Min_cycle;Max_cycle;Signal;HPM_P1;HPM_P2
2023/04/14 00:01:16;;;;;;;4.68;3.35;;;;;;;5.36;74.48;95855.72;5053274;28;20059;-78
2023/04/14 00:03:45;;;;;;;4.05;3.55;;;;;;;5.37;73.98;95852.16;5051612;28;20057;-79
2023/04/14 00:06:12;;;;;;;6.13;3.33;;;;;;;5.39;74.00;95852.00;5053788;28;20049;-79
2023/04/14 00:08:40;;;;;;;4.60;3.88;;;;;;;5.42;73.89;95856.81;5054341;28;20076;-77
2023/04/14 00:11:07;;;;;;;4.38;3.53;;;;;;;5.45;74.14;95853.91;5054234;28;20054;-78
2023/04/14 00:13:35;;;;;;;5.35;3.70;;;;;;;5.48;73.94;95856.16;5053035;28;20049;-78
2023/04/14 00:16:05;;;;;;;6.93;4.22;;;;;;;5.49;74.09;95857.78;5040307;28;20050;-78
2023/04/14 00:18:33;;;;;;;4.20;3.40;;;;;;;5.49;73.58;95857.78;5033458;28;20137;-79
2023/04/14 00:21:01;;;;;;;5.15;3.70;;;;;;;5.47;73.42;95862.31;5033630;28;20140;-78
2023/04/14 00:23:28;;;;;;;5.38;4.03;;;;;;;5.46;73.96;95861.47;5032802;28;20132;-78
2023/04/14 00:25:56;;;;;;;4.85;4.00;;;;;;;5.47;73.66;95862.31;5033028;28;20053;-78
2023/04/14 00:28:23;;;;;;;6.55;3.97;;;;;;;5.45;73.96;95869.44;5033413;28;20099;-79
2023/04/14 00:30:51;;;;;;;6.05;4.40;;;;;;;5.43;74.16;95868.78;5032653;28;20064;-78
2023/04/14 00:33:20;;;;;;;4.75;3.90;;;;;;;5.43;74.73;95866.22;5032641;28;20053;-78
2023/04/14 00:35:47;;;;;;;7.85;4.10;;;;;;;5.44;74.87;95867.81;5032989;28;20140;-78
2023/04/14 00:38:15;;;;;;;5.22;4.05;;;;;;;5.52;76.29;95872.94;5032896;28;20441;-79
2023/04/14 00:40:43;;;;;;;6.43;4.25;;;;;;;5.57;75.26;95873.25;5032627;28;20504;-78
2023/04/14 00:43:10;;;;;;;5.80;4.85;;;;;;;5.58;74.43;95880.06;5031906;28;20099;-78
2023/04/14 00:45:42;;;;;;;10.85;6.65;;;;;;;5.62;75.92;95880.50;5032597;28;20056;-78
2023/04/14 00:48:10;;;;;;;6.22;4.88;;;;;;;5.67;74.73;95883.41;5032499;28;20509;-78
2023/04/14 00:50:40;;;;;;;5.22;4.35;;;;;;;5.67;74.68;95889.38;5032361;28;20551;-78
2023/04/14 00:53:07;;;;;;;5.07;4.40;;;;;;;5.67;74.13;95886.78;5032291;28;20056;-78
2023/04/14 00:55:35;;;;;;;4.68;3.80;;;;;;;5.66;74.34;95886.94;5032563;28;20337;-78
2023/04/14 00:58:03;;;;;;;5.38;3.88;;;;;;;5.63;74.15;95884.72;5032170;28;20069;-78
2023/04/14 01:00:33;;;;;;;6.13;3.78;;;;;;;5.59;74.32;95889.41;5032445;28;20053;-79
2023/04/14 01:03:01;;;;;;;5.43;3.45;;;;;;;5.57;74.32;95888.78;5032350;28;20527;-78
2023/04/14 01:05:28;;;;;;;5.50;3.80;;;;;;;5.61;75.23;95889.25;5032104;28;20057;-78
2023/04/14 01:07:58;;;;;;;5.80;3.80;;;;;;;5.65;74.84;95886.16;5032005;28;20140;-78
2023/04/14 01:10:30;;;;;;;4.85;3.45;;;;;;;5.69;75.80;95892.59;5032188;28;20049;-79
2023/04/14 01:13:08;;;;;;;7.32;3.92;;;;;;;5.77;75.97;95887.41;5031912;28;20045;-78
2023/04/14 01:15:41;;;;;;;4.95;3.90;;;;;;;5.76;74.57;95898.72;5032013;28;20054;-78
2023/04/14 01:18:15;;;;;;;;;;;;;;;5.77;75.93;95891.75;5032777;28;20401;-78
2023/04/14 01:20:44;;;;;;;5.45;3.67;;;;;;;5.82;75.87;95891.28;5032171;28;19921;-78
2023/04/14 01:23:21;;;;;;;6.60;3.40;;;;;;;5.81;74.50;95895.63;5031562;28;20132;-78
2023/04/14 01:26:15;;;;;;;6.07;3.72;;;;;;;5.76;74.30;95892.75;5035385;28;20068;-78
2023/04/14 01:29:03;;;;;;;5.95;3.30;;;;;;;5.70;73.95;95894.22;5036028;28;20049;-78
2023/04/14 01:31:36;;;;;;;5.57;3.38;;;;;;;5.63;74.03;95890.69;5019576;28;20050;-78
2023/04/14 01:34:12;;;;;;;5.95;3.22;;;;;;;5.57;73.72;95899.13;5035831;28;20529;-79
2023/04/14 01:36:42;;;;;;;4.47;2.90;;;;;;;5.54;73.66;95899.47;5035997;28;20053;-79
2023/04/14 01:39:15;;;;;;;5.43;2.80;;;;;;;5.52;74.16;95902.22;5035816;28;20485;-78
2023/04/14 01:41:47;;;;;;;4.43;2.47;;;;;;;5.49;74.20;95897.38;5035526;28;20049;-79
2023/04/14 01:44:18;;;;;;;4.17;2.77;;;;;;;5.55;75.67;95901.88;5035580;28;20489;-78
2023/04/14 01:46:50;;;;;;;3.50;2.70;;;;;;;5.67;78.38;95904.09;5035482;28;20045;-79
2023/04/14 01:49:21;;;;;;;3.55;2.83;;;;;;;5.74;76.36;95908.44;5035925;28;20416;-78
2023/04/14 01:51:50;;;;;;;3.17;2.60;;;;;;;5.73;74.58;95901.66;5035748;28;20417;-78
2023/04/14 01:54:19;;;;;;;3.17;2.30;;;;;;;5.68;74.05;95900.53;5035419;28;20447;-78
2023/04/14 01:56:50;;;;;;;4.75;2.33;;;;;;;5.61;73.61;95895.22;5035336;28;20085;-78
2023/04/14 01:59:20;;;;;;;5.15;2.47;;;;;;;5.56;73.80;95892.34;5035535;28;20055;-78
2023/04/14 02:01:50;;;;;;;5.47;2.72;;;;;;;5.53;74.23;95887.50;5035424;28;20045;-78
2023/04/14 02:04:21;;;;;;;3.60;2.35;;;;;;;5.54;73.97;95894.28;5034949;28;20053;-78
2023/04/14 02:06:51;;;;;;;3.33;2.28;;;;;;;5.56;74.02;95887.16;5034942;28;20045;-78
2023/04/14 02:09:20;;;;;;;3.33;1.92;;;;;;;5.55;73.68;95886.38;5035109;28;20045;-78
2023/04/14 02:11:50;;;;;;;2.60;2.40;;;;;;;5.62;75.07;95890.84;5035254;28;20132;-78
2023/04/14 02:14:19;;;;;;;2.78;2.25;;;;;;;5.67;75.28;95898.94;5034836;28;20050;-79
2023/04/14 02:16:48;;;;;;;5.38;2.40;;;;;;;5.69;74.63;95889.22;5035309;28;20140;-78
2023/04/14 02:19:19;;;;;;;2.55;2.20;;;;;;;5.73;76.99;95888.72;5035123;28;20053;-78
2023/04/14 02:21:49;;;;;;;2.80;2.08;;;;;;;5.82;77.99;95892.06;5035349;28;20045;-78
2023/04/14 02:24:17;;;;;;;3.83;2.08;;;;;;;5.87;77.88;95891.56;5034815;28;20057;-78
2023/04/14 02:26:53;;;;;;;3.25;2.22;;;;;;;5.91;79.93;95890.25;5034754;28;20064;-78
2023/04/14 02:29:22;;;;;;;5.60;3.08;;;;;;;5.91;76.87;95890.25;5035174;28;20042;-79
2023/04/14 02:31:57;;;;;;;4.82;3.22;;;;;;;5.84;75.47;95884.13;5034570;28;20045;-78
2023/04/14 02:34:32;;;;;;;7.68;3.88;;;;;;;5.78;74.85;95894.19;5034953;28;20567;-78
2023/04/14 02:37:07;;;;;;;5.07;3.80;;;;;;;5.78;77.34;95896.78;5033774;28;20064;-78
2023/04/14 02:39:40;;;;;;;5.32;4.18;;;;;;;5.83;78.05;95901.44;5034776;28;20113;-78
2023/04/14 02:42:12;;;;;;;5.10;3.65;;;;;;;5.87;78.75;95899.31;5034426;28;20056;-78
2023/04/14 02:44:45;;;;;;;17.65;9.05;;;;;;;5.84;76.55;95897.06;5034978;28;20080;-78
2023/04/14 02:47:21;;;;;;;13.00;6.05;;;;;;;5.74;75.09;95895.50;5034725;28;20046;-78
2023/04/14 02:49:56;;;;;;;14.40;6.15;;;;;;;5.63;74.81;95893.28;5034599;28;20576;-78
2023/04/14 02:52:27;;;;;;;13.10;7.05;;;;;;;5.53;74.37;95893.50;5034388;28;20088;-78
2023/04/14 02:54:55;;;;;;;17.25;5.88;;;;;;;5.49;75.20;95894.00;5034824;28;20186;-78
2023/04/14 02:57:23;;;;;;;4.55;3.50;;;;;;;5.47;74.71;95895.94;5034831;28;20580;-78
2023/04/14 02:59:52;;;;;;;6.65;3.28;;;;;;;5.44;75.49;95893.66;5034667;28;20052;-78
2023/04/14 03:02:22;;;;;;;4.38;2.90;;;;;;;5.46;75.69;95891.72;5034333;28;20049;-78
2023/04/14 03:04:52;;;;;;;4.60;3.05;;;;;;;5.50;76.77;95887.84;5041102;28;20057;-78
2023/04/14 03:07:21;;;;;;;4.47;3.50;;;;;;;5.52;75.29;95891.84;5048290;28;20057;-77
2023/04/14 03:09:49;;;;;;;6.18;4.85;;;;;;;5.51;74.92;95889.44;5044061;28;20092;-78
2023/04/14 03:12:19;;;;;;;6.53;3.95;;;;;;;5.48;74.79;95894.94;5034932;28;20045;-78
2023/04/14 03:14:47;;;;;;;6.05;4.03;;;;;;;5.44;74.86;95888.50;5034602;28;20049;-78
2023/04/14 03:17:17;;;;;;;8.57;3.67;;;;;;;5.41;74.49;95874.13;5034272;28;20054;-78
2023/04/14 03:19:47;;;;;;;4.47;3.75;;;;;;;5.39;74.65;95876.06;5034205;28;20049;-79
2023/04/14 03:22:19;;;;;;;5.40;4.00;;;;;;;5.42;74.71;95872.34;5034257;28;20149;-78
2023/04/14 03:24:47;;;;;;;5.97;3.70;;;;;;;5.45;74.44;95869.44;5034296;28;20053;-78
2023/04/14 03:27:20;;;;;;;9.57;4.38;;;;;;;5.44;74.59;95868.59;5033930;28;20049;-78
2023/04/14 03:29:51;;;;;;;5.90;4.03;;;;;;;5.44;74.60;95860.03;5033886;28;20080;-78
2023/04/14 03:32:21;;;;;;;5.72;3.92;;;;;;;5.43;74.37;95867.00;5034214;28;20053;-78
2023/04/14 03:34:53;;;;;;;5.68;3.35;;;;;;;5.39;74.44;95870.09;5034162;28;20056;-77
2023/04/14 03:37:24;;;;;;;5.60;3.78;;;;;;;5.35;74.76;95865.25;5033548;28;20050;-78
2023/04/14 03:39:54;;;;;;;5.75;3.85;;;;;;;5.35;74.71;95859.28;5033373;28;20057;-79
2023/04/14 03:42:24;;;;;;;5.60;4.38;;;;;;;5.37;74.60;95863.28;5033156;28;20045;-78
2023/04/14 03:44:55;;;;;;;4.97;3.65;;;;;;;5.44;76.30;95862.63;5033117;28;20060;-78
2023/04/14 03:47:25;;;;;;;3.92;3.40;;;;;;;5.49;76.39;95860.38;5033249;28;20100;-78
2023/04/14 03:49:58;;;;;;;6.07;4.00;;;;;;;5.55;75.27;95870.03;5033410;28;20041;-78
2023/04/14 03:52:31;;;;;;;4.97;3.60;;;;;;;5.57;74.82;95868.06;5033150;28;20160;-78
2023/04/14 03:55:04;;;;;;;6.50;3.80;;;;;;;5.61;75.29;95877.13;5033341;28;20057;-78
2023/04/14 03:57:33;;;;;;;4.53;3.42;;;;;;;5.70;76.63;95881.28;5033377;28;20050;-78
2023/04/14 04:00:03;;;;;;;6.22;4.30;;;;;;;5.81;78.21;95884.47;5033209;28;20053;-78
2023/04/14 04:02:32;;;;;;;6.13;4.53;;;;;;;5.85;76.74;95870.22;5032989;28;20049;-78
2023/04/14 04:05:01;;;;;;;6.30;4.43;;;;;;;5.81;75.91;95874.91;5033384;28;20053;-78
2023/04/14 04:07:31;;;;;;;8.10;4.60;;;;;;;5.82;75.45;95871.38;5033216;28;20416;-78
2023/04/14 04:09:59;;;;;;;5.63;4.40;;;;;;;5.81;75.04;95879.28;5033076;28;20052;-78
2023/04/14 04:12:28;;;;;;;7.05;5.05;;;;;;;5.74;75.08;95874.78;5032608;28;20076;-79
2023/04/14 04:14:56;;;;;;;5.68;4.80;;;;;;;5.71;75.00;95864.78;5033033;28;20068;-78
2023/04/14 04:17:24;;;;;;;8.18;4.80;;;;;;;5.66;74.93;95869.63;5032746;28;20056;-79
2023/04/14 04:19:54;;;;;;;5.25;4.53;;;;;;;5.67;75.11;95881.63;5032780;28;20046;-78
2023/04/14 04:22:26;;;;;;;5.75;4.70;;;;;;;5.71;76.46;95875.13;5032408;28;20497;-75
2023/04/14 04:24:55;;;;;;;5.88;4.80;;;;;;;5.78;76.31;95870.88;5033101;28;20049;-78
2023/04/14 04:27:23;;;;;;;7.75;4.93;;;;;;;5.83;76.23;95869.56;5032683;28;20511;-78
2023/04/14 04:29:55;;;;;;;6.85;4.82;;;;;;;5.84;75.68;95874.59;5032480;28;20600;-78
2023/04/14 04:32:23;;;;;;;9.50;5.47;;;;;;;5.84;75.37;95877.19;5032463;28;20069;-78
2023/04/14 04:34:52;;;;;;;9.55;5.35;;;;;;;5.85;74.72;95885.75;5032472;28;20056;-78
2023/04/14 04:37:21;;;;;;;10.50;5.25;;;;;;;5.84;74.62;95889.28;5032886;28;20053;-78
2023/04/14 04:39:49;;;;;;;6.97;4.45;;;;;;;5.83;74.45;95892.88;5032456;28;20046;-78
2023/04/14 04:42:18;;;;;;;7.93;5.85;;;;;;;5.82;75.08;95893.84;5032166;28;20056;-78
2023/04/14 04:44:46;;;;;;;8.90;5.20;;;;;;;5.84;76.45;95897.06;5032669;28;20069;-78
2023/04/14 04:47:13;;;;;;;8.32;5.55;;;;;;;5.93;77.64;95888.31;5032391;28;20060;-78
2023/04/14 04:49:41;;;;;;;7.45;5.78;;;;;;;6.02;77.98;95895.06;5032335;28;20417;-78
2023/04/14 04:52:08;;;;;;;9.55;5.60;;;;;;;6.08;77.46;95896.16;5032095;28;20111;-79
2023/04/14 04:54:36;;;;;;;6.93;5.72;;;;;;;6.10;76.97;95892.44;5032473;28;20053;-77
2023/04/14 04:57:04;;;;;;;9.35;6.22;;;;;;;6.11;76.04;95896.63;5032479;28;20057;-78
2023/04/14 04:59:34;;;;;;;8.70;7.05;;;;;;;6.09;75.15;95900.38;5031208;28;20054;-78
2023/04/14 05:02:04;;;;;;;9.98;6.72;;;;;;;6.05;74.53;95902.47;5032164;28;20200;-78
2023/04/14 05:04:32;;;;;;;9.45;7.40;;;;;;;5.99;74.76;95900.56;5032286;28;20123;-79
2023/04/14 05:07:00;;;;;;;12.20;8.45;;;;;;;5.91;74.58;95900.59;5032195;28;20103;-78
2023/04/14 05:09:27;;;;;;;14.52;7.88;;;;;;;5.86;74.62;95897.69;5032023;28;20058;-78
2023/04/14 05:11:56;;;;;;;15.00;7.75;;;;;;;5.82;74.74;95901.63;5032154;28;20088;-78
2023/04/14 05:14:23;;;;;;;18.65;8.10;;;;;;;5.76;74.82;95911.66;5031843;28;20049;-78
2023/04/14 05:16:55;;;;;;;10.93;7.22;;;;;;;5.75;75.55;95912.66;5032398;28;20132;-78
2023/04/14 05:19:23;;;;;;;15.32;7.75;;;;;;;5.81;75.30;95920.69;5032134;28;20196;-78
2023/04/14 05:21:51;;;;;;;9.55;7.30;;;;;;;5.87;76.92;95928.59;5031958;28;20049;-78
2023/04/14 05:24:18;;;;;;;11.65;7.82;;;;;;;5.99;78.29;95929.06;5031782;28;20054;-78
2023/04/14 05:26:46;;;;;;;11.73;7.72;;;;;;;6.11;78.83;95937.25;5031850;28;20060;-78
2023/04/14 05:29:31;;;;;;;8.75;7.28;;;;;;;6.21;79.20;95947.38;5032363;28;20057;-78
2023/04/14 05:32:00;;;;;;;10.25;8.23;;;;;;;6.29;79.80;95955.94;5031705;28;20069;-78
2023/04/14 05:34:28;;;;;;;13.15;9.07;;;;;;;6.34;79.34;95952.81;5032114;28;20238;-78
2023/04/14 05:36:56;;;;;;;11.23;8.40;;;;;;;6.37;78.16;95957.69;5031772;28;20068;-78
2023/04/14 05:39:23;;;;;;;12.73;7.50;;;;;;;6.34;76.30;95963.19;5032101;28;20054;-78
2023/04/14 05:41:51;;;;;;;10.45;6.30;;;;;;;6.31;76.72;95964.34;5031949;28;20431;-79
2023/04/14 05:44:18;;;;;;;9.18;7.00;;;;;;;6.38;77.02;95969.63;5031873;28;20051;-78
2023/04/14 05:46:46;;;;;;;9.32;6.60;;;;;;;6.38;77.24;95973.06;5031904;28;20064;-79
2023/04/14 05:49:15;;;;;;;11.95;6.85;;;;;;;6.37;76.37;95975.81;5032175;28;20100;-78
2023/04/14 05:51:42;;;;;;;8.57;6.22;;;;;;;6.35;76.93;95975.97;5031810;28;20049;-78
2023/04/14 05:54:10;;;;;;;11.35;6.93;;;;;;;6.38;78.09;95975.66;5031954;28;20056;-78
2023/04/14 05:56:37;;;;;;;7.93;4.90;;;;;;;6.40;76.06;95983.22;5032102;28;20053;-78
2023/04/14 05:59:05;;;;;;;8.15;5.28;;;;;;;6.39;75.18;95981.63;5031993;28;20056;-79
2023/04/14 06:01:33;;;;;;;7.10;5.10;;;;;;;6.43;76.70;95984.66;5031827;28;20145;-78
2023/04/14 06:04:02;;;;;;;7.88;5.22;;;;;;;6.49;77.73;95982.19;5031436;28;20053;-78
2023/04/14 06:06:32;;;;;;;7.63;4.78;;;;;;;6.56;78.07;95982.34;5032206;28;20420;-78
2023/04/14 06:09:00;;;;;;;7.72;4.43;;;;;;;6.64;77.62;95978.88;5031999;28;20050;-78
2023/04/14 06:11:28;;;;;;;10.30;5.30;;;;;;;6.66;77.86;95982.91;5033999;28;20057;-78
2023/04/14 06:13:55;;;;;;;6.97;4.82;;;;;;;6.68;77.98;95975.78;5035180;28;20049;-78
2023/04/14 06:16:23;;;;;;;13.23;5.20;;;;;;;6.68;76.69;95970.59;5041990;28;20092;-78
2023/04/14 06:18:50;;;;;;;9.18;4.28;;;;;;;6.71;75.38;95969.44;5054137;28;20049;-79
2023/04/14 06:21:18;;;;;;;6.63;4.38;;;;;;;6.73;74.66;95968.28;5051224;28;20056;-78
2023/04/14 06:23:47;;;;;;;9.07;5.10;;;;;;;6.78;77.36;95960.00;5036017;28;20515;-78
2023/04/14 06:26:14;;;;;;;9.18;5.13;;;;;;;6.85;77.13;95953.13;5035192;28;20526;-78
2023/04/14 06:28:42;;;;;;;6.93;4.70;;;;;;;6.85;74.79;95960.91;5035236;28;20084;-78
2023/04/14 06:31:10;;;;;;;13.77;5.57;;;;;;;6.86;74.81;95952.13;5035097;28;20398;-78
2023/04/14 06:33:38;;;;;;;10.05;4.75;;;;;;;6.87;73.65;95948.59;5034785;28;20046;-78
2023/04/14 06:36:06;;;;;;;8.93;5.50;;;;;;;6.95;75.30;95945.09;5035153;28;20049;-78
2023/04/14 06:38:34;;;;;;;11.45;5.10;;;;;;;7.03;74.44;95941.66;5035434;28;20045;-78
2023/04/14 06:41:02;;;;;;;9.48;5.05;;;;;;;7.07;75.30;95940.31;5035325;28;20056;-78
2023/04/14 06:43:30;;;;;;;7.95;4.85;;;;;;;7.15;76.66;95930.69;5034940;28;20049;-78
2023/04/14 06:45:58;;;;;;;6.50;4.60;;;;;;;7.23;76.28;95932.38;5035006;28;20077;-78
2023/04/14 06:48:26;;;;;;;8.65;5.88;;;;;;;7.36;75.88;95926.56;5035009;28;20057;-78
2023/04/14 06:50:54;;;;;;;10.43;5.03;;;;;;;7.46;74.94;95921.94;5034440;28;20045;-79
2023/04/14 06:53:22;;;;;;;11.80;4.57;;;;;;;7.52;73.67;95925.59;5034168;28;20077;-78
2023/04/14 06:55:50;;;;;;;9.75;4.72;;;;;;;7.62;73.60;95926.94;5034449;28;20053;-78
2023/04/14 06:58:19;;;;;;;7.55;4.57;;;;;;;7.70;74.35;95927.84;5034261;28;20053;-78
2023/04/14 07:00:47;;;;;;;7.97;4.50;;;;;;;7.69;72.30;95921.84;5034522;28;20045;-78
2023/04/14 07:03:14;;;;;;;7.65;4.45;;;;;;;7.66;73.25;95922.19;5034185;28;20137;-78
2023/04/14 07:05:42;;;;;;;8.85;4.32;;;;;;;7.69;72.06;95919.22;5034258;28;20151;-78
2023/04/14 07:08:09;;;;;;;8.57;5.20;;;;;;;7.71;73.49;95922.47;5034332;28;20072;-78
2023/04/14 07:10:37;;;;;;;10.57;4.72;;;;;;;7.75;72.08;95926.31;5033836;28;20444;-78
2023/04/14 07:13:05;;;;;;;7.68;4.43;;;;;;;7.77;70.56;95931.34;5033406;28;20056;-78
2023/04/14 07:15:34;;;;;;;6.35;4.32;;;;;;;7.76;71.05;95925.34;5034137;28;20086;-78
2023/04/14 07:18:01;;;;;;;10.05;5.03;;;;;;;7.81;70.46;95925.59;5033757;28;20057;-78
2023/04/14 07:20:29;;;;;;;10.90;4.35;;;;;;;7.86;69.68;95932.03;5033788;28;20056;-78
2023/04/14 07:22:57;;;;;;;10.60;4.47;;;;;;;7.84;71.27;95927.00;5032577;28;20057;-78
2023/04/14 07:25:24;;;;;;;8.27;4.13;;;;;;;7.83;70.63;95928.81;5033669;28;20055;-78
2023/04/14 07:27:52;;;;;;;11.10;4.57;;;;;;;7.84;72.08;95925.22;5033906;28;20056;-78
2023/04/14 07:30:30;;;;;;;8.38;3.83;;;;;;;7.90;72.53;95933.28;5033790;28;20076;-78
2023/04/14 07:33:00;;;;;;;8.32;4.00;;;;;;;7.93;72.71;95935.50;5033289;28;20104;-78
2023/04/14 07:35:28;;;;;;;7.43;3.65;;;;;;;8.00;72.25;95933.78;5033672;28;20444;-78
2023/04/14 07:37:56;;;;;;;8.93;4.05;;;;;;;8.04;69.49;95928.06;5034397;28;20107;-78
2023/04/14 07:40:23;;;;;;;6.93;4.00;;;;;;;8.14;69.55;95922.59;5034123;28;20524;-78
2023/04/14 07:42:51;;;;;;;9.00;5.00;;;;;;;8.23;68.01;95926.69;5033502;28;20045;-79
2023/04/14 07:45:19;;;;;;;6.70;3.45;;;;;;;8.26;68.35;95928.09;5033612;28;20068;-75
2023/04/14 07:47:46;;;;;;;11.65;4.40;;;;;;;8.32;69.31;95921.38;5033665;28;20049;-76
2023/04/14 07:50:15;;;;;;;8.10;4.57;;;;;;;8.37;69.64;95924.22;5033452;28;20144;-76
2023/04/14 07:52:46;;;;;;;7.75;4.53;;;;;;;8.56;69.14;95918.44;5033808;28;20107;-76
2023/04/14 07:55:14;;;;;;;8.65;4.50;;;;;;;9.00;68.41;95925.22;5033335;28;20140;-78
2023/04/14 07:57:41;;;;;;;9.73;4.70;;;;;;;9.59;67.13;95923.22;5033207;28;20061;-78
2023/04/14 08:00:10;;;;;;;9.95;4.82;;;;;;;10.64;62.78;95932.44;5033265;28;20140;-78
2023/04/14 08:02:38;;;;;;;11.20;5.65;;;;;;;11.17;59.22;95931.66;5032567;28;20046;-78
2023/04/14 08:05:06;;;;;;;10.82;4.40;;;;;;;11.52;58.17;95928.81;5032659;28;20111;-78
2023/04/14 08:07:35;;;;;;;12.38;7.00;;;;;;;11.62;56.74;95928.41;5033325;28;20049;-79
2023/04/14 08:10:03;;;;;;;8.50;5.80;;;;;;;11.26;57.66;95929.66;5032983;28;20049;-78
2023/04/14 08:12:31;;;;;;;8.25;4.97;;;;;;;10.93;59.61;95914.81;5050756;23;20085;-80
2023/04/14 08:14:58;;;;;;;7.70;4.35;;;;;;;11.01;59.67;95922.44;5017569;28;20057;-80
2023/04/14 08:17:26;;;;;;;7.88;4.00;;;;;;;11.25;58.81;95921.03;5017086;28;20054;-79
2023/04/14 08:19:54;;;;;;;7.22;4.07;;;;;;;11.89;58.18;95924.72;5017519;28;20481;-78
2023/04/14 08:22:21;;;;;;;7.53;3.42;;;;;;;12.68;56.39;95922.75;5015702;28;20046;-81
2023/04/14 08:24:50;;;;;;;6.38;3.75;;;;;;;13.40;53.76;95925.03;5016088;28;20429;-79
2023/04/14 08:27:18;;;;;;;9.27;4.00;;;;;;;14.02;52.19;95917.16;5016895;28;20060;-78
2023/04/14 08:29:46;;;;;;;5.38;3.50;;;;;;;14.12;50.96;95911.38;5017060;28;20421;-78
2023/04/14 08:32:13;;;;;;;9.40;3.80;;;;;;;13.69;51.61;95914.91;5017032;28;20429;-78
2023/04/14 08:34:41;;;;;;;7.57;4.03;;;;;;;13.70;53.43;95913.88;5016316;28;20060;-81
2023/04/14 08:37:28;;;;;;;11.98;6.43;;;;;;;13.89;54.20;95912.84;5016249;28;20054;-77
2023/04/14 08:39:57;;;;;;;8.13;3.88;;;;;;;13.56;54.70;95910.59;5016679;28;20052;-79
2023/04/14 08:42:25;;;;;;;5.82;3.17;;;;;;;13.09;56.05;95913.59;5016466;28;20456;-77
2023/04/14 08:44:52;;;;;;;5.10;3.00;;;;;;;12.62;55.75;95909.72;5016425;28;20050;-78
2023/04/14 08:47:21;;;;;;;7.80;3.30;;;;;;;12.11;56.66;95916.59;5015493;28;20129;-79
2023/04/14 08:49:56;;;;;;;7.68;3.13;;;;;;;11.67;59.31;95910.31;5015667;28;20050;-77
2023/04/14 08:52:27;;;;;;;8.40;2.80;;;;;;;11.61;60.28;95914.56;5015168;28;20105;-80
2023/04/14 08:54:57;;;;;;;9.25;3.00;;;;;;;11.74;57.05;95904.06;5016094;28;20133;-77
2023/04/14 08:57:26;;;;;;;5.80;2.92;;;;;;;11.55;57.87;95903.09;5017337;28;20060;-78
2023/04/14 08:59:55;;;;;;;10.07;4.38;;;;;;;11.43;58.86;95903.94;5016815;28;20049;-78
2023/04/14 09:02:23;;;;;;;9.52;4.00;;;;;;;11.45;57.99;95907.94;5016385;28;20042;-79
2023/04/14 09:04:51;;;;;;;7.00;3.33;;;;;;;11.64;56.80;95911.53;5016795;28;20105;-78
2023/04/14 09:07:20;;;;;;;6.05;2.33;;;;;;;11.91;55.83;95916.69;5016958;28;20050;-78
2023/04/14 09:09:48;;;;;;;6.55;2.63;;;;;;;11.99;56.70;95924.31;5016550;28;20046;-80
2023/04/14 09:12:17;;;;;;;7.28;3.00;;;;;;;11.93;57.95;95918.09;5015754;28;20141;-81
2023/04/14 09:14:45;;;;;;;7.28;2.67;;;;;;;11.89;57.21;95924.72;5015982;28;20060;-81
2023/04/14 09:17:13;;;;;;;5.07;1.77;;;;;;;12.22;55.71;95918.56;5017238;28;20054;-80
2023/04/14 09:19:41;;;;;;;7.28;2.20;;;;;;;12.95;54.46;95918.13;5017183;28;20473;-81
2023/04/14 09:22:29;;;;;;;5.53;1.85;;;;;;;13.66;54.70;95918.72;5015480;28;20069;-78
2023/04/14 09:24:58;;;;;;;5.35;2.33;;;;;;;13.92;54.66;95912.41;5015149;28;20049;-82
2023/04/14 09:27:28;;;;;;;3.67;1.90;;;;;;;14.04;51.33;95917.72;5014470;28;20431;-80
2023/04/14 09:29:57;;;;;;;4.18;2.03;;;;;;;14.35;51.99;95916.72;5015208;28;20417;-81
2023/04/14 09:32:25;;;;;;;3.92;2.10;;;;;;;14.77;50.84;95916.78;5014041;28;20061;-80
2023/04/14 09:34:53;;;;;;;5.90;2.10;;;;;;;15.05;50.74;95910.09;5013771;28;20109;-80
2023/04/14 09:37:24;;;;;;;7.47;2.17;;;;;;;15.19;51.12;95910.66;5014754;28;20057;-82
2023/04/14 09:39:54;;;;;;;5.25;2.38;;;;;;;15.03;48.51;95922.66;5014324;28;20060;-79
2023/04/14 09:42:38;;;;;;;6.95;2.47;;;;;;;14.71;47.00;95903.75;5014680;28;20081;-79
2023/04/14 09:45:07;;;;;;;5.65;2.40;;;;;;;14.39;48.82;95912.63;5014085;28;20123;-76
2023/04/14 09:47:35;;;;;;;4.45;2.10;;;;;;;14.05;48.88;95916.69;5017178;28;20050;-76
2023/04/14 09:50:04;;;;;;;6.05;2.40;;;;;;;13.67;51.47;95909.06;5017303;28;20465;-81
2023/04/14 09:52:39;;;;;;;7.10;2.42;;;;;;;13.28;52.68;95911.03;5016652;28;20532;-77
2023/04/14 09:55:09;;;;;;;5.00;2.28;;;;;;;13.08;51.41;95906.75;5017380;28;20050;-80
2023/04/14 09:57:41;;;;;;;6.88;2.47;;;;;;;13.36;50.77;95908.97;5017058;28;20046;-77
2023/04/14 10:00:20;;;;;;;3.47;2.03;;;;;;;13.94;48.89;95906.94;5017072;28;20421;-77
2023/04/14 10:02:49;;;;;;;6.25;1.90;;;;;;;14.45;49.10;95903.06;5017957;28;20053;-77
2023/04/14 10:05:19;;;;;;;7.07;2.55;;;;;;;14.87;47.24;95897.03;5016813;28;20053;-76
2023/04/14 10:07:48;;;;;;;4.10;1.98;;;;;;;15.13;49.80;95896.63;5016532;28;20124;-76
2023/04/14 10:10:16;;;;;;;4.47;2.50;;;;;;;15.05;46.60;95889.09;5016847;28;20054;-78
2023/04/14 10:12:45;;;;;;;4.93;2.08;;;;;;;14.84;46.74;95877.28;5016091;28;20527;-76
2023/04/14 10:15:14;;;;;;;5.55;1.85;;;;;;;14.65;47.00;95871.34;5017294;28;20049;-81
2023/04/14 10:17:42;;;;;;;4.85;1.70;;;;;;;14.50;49.96;95870.94;5017382;28;20132;-77
2023/04/14 10:20:10;;;;;;;5.90;2.10;;;;;;;14.30;47.68;95872.00;5017431;28;20513;-77
2023/04/14 10:22:38;;;;;;;5.05;1.80;;;;;;;14.14;49.06;95868.16;5017702;28;20061;-77
2023/04/14 10:25:09;;;;;;;6.30;2.22;;;;;;;14.21;48.52;95862.81;5017154;28;20504;-77
2023/04/14 10:27:38;;;;;;;4.97;2.00;;;;;;;14.20;47.99;95858.59;5018074;28;20050;-78
2023/04/14 10:30:08;;;;;;;3.60;1.60;;;;;;;14.16;47.76;95852.19;5017592;28;20057;-78
2023/04/14 10:32:39;;;;;;;5.90;1.85;;;;;;;14.29;47.16;95845.97;5017093;28;20045;-80
2023/04/14 10:35:10;;;;;;;5.45;2.22;;;;;;;14.37;46.63;95846.47;5017180;28;20045;-79
2023/04/14 10:37:38;;;;;;;3.75;1.60;;;;;;;14.53;46.20;95838.97;5017447;28;20054;-78
2023/04/14 10:40:06;;;;;;;6.82;2.33;;;;;;;14.56;46.49;95843.78;5017480;28;20056;-83
2023/04/14 10:42:53;;;;;;;4.65;2.03;;;;;;;14.26;46.00;95844.59;5017196;28;20418;-80
2023/04/14 10:45:23;;;;;;;5.47;2.20;;;;;;;13.99;46.46;95855.47;5017921;28;20128;-77
2023/04/14 10:47:51;;;;;;;5.30;2.10;;;;;;;13.72;46.91;95854.16;5017339;28;20425;-79
2023/04/14 10:50:23;;;;;;;5.05;1.90;;;;;;;13.54;51.08;95860.22;5016591;28;20046;-80
2023/04/14 10:52:54;;;;;;;7.40;2.45;;;;;;;13.43;49.39;95847.84;5016886;28;20050;-80
2023/04/14 10:55:22;;;;;;;4.40;1.80;;;;;;;13.42;51.46;95848.84;5017143;28;20058;-80
2023/04/14 10:57:50;;;;;;;6.35;2.30;;;;;;;13.51;51.48;95850.16;5015740;28;20049;-81
2023/04/14 11:00:27;;;;;;;5.15;1.75;;;;;;;13.74;48.86;95845.06;5016757;28;20142;-80
2023/04/14 11:02:57;;;;;;;4.57;2.03;;;;;;;14.07;48.57;95856.16;5015795;28;20105;-78
2023/04/14 11:05:25;;;;;;;2.45;1.27;;;;;;;14.14;47.92;95849.00;5015882;28;20101;-79
2023/04/14 11:07:56;;;;;;;3.42;1.55;;;;;;;14.06;50.30;95855.38;5015717;28;20680;-78
2023/04/14 11:10:31;;;;;;;4.13;1.88;;;;;;;14.02;51.99;95847.13;5016037;28;20053;-78
2023/04/14 11:13:04;;;;;;;4.75;1.58;;;;;;;13.92;51.31;95838.19;5018829;28;20042;-81
2023/04/14 11:15:47;;;;;;;4.95;1.45;;;;;;;13.68;49.68;95840.69;5016920;28;20406;-80
2023/04/14 11:18:16;;;;;;;5.20;1.35;;;;;;;13.52;51.28;95842.09;5016589;28;20054;-79
2023/04/14 11:20:44;;;;;;;12.13;2.88;;;;;;;13.49;52.06;95837.28;5017066;28;20053;-79
2023/04/14 11:23:15;;;;;;;5.93;1.83;;;;;;;13.44;48.98;95831.88;5016456;28;20045;-78
2023/04/14 11:25:42;;;;;;;6.93;2.00;;;;;;;13.38;50.48;95827.53;5016835;28;20050;-78
2023/04/14 11:28:10;;;;;;;3.30;1.92;;;;;;;13.25;51.03;95838.94;5016202;28;20417;-78
2023/04/14 11:30:40;;;;;;;6.07;1.60;;;;;;;13.03;49.24;95840.34;5016281;28;20052;-79
2023/04/14 11:33:09;;;;;;;3.90;1.60;;;;;;;12.82;50.74;95834.47;5016250;28;20050;-79
2023/04/14 11:35:37;;;;;;;5.55;1.85;;;;;;;12.62;49.82;95828.63;5017166;28;20045;-80
2023/04/14 11:38:09;;;;;;;5.47;1.45;;;;;;;12.48;52.65;95836.53;5016557;28;20402;-80
2023/04/14 11:40:37;;;;;;;4.82;1.67;;;;;;;12.38;50.17;95832.81;5017469;28;20505;-80
2023/04/14 11:43:06;;;;;;;7.22;2.95;;;;;;;12.33;53.87;95834.25;5018096;28;20046;-79
2023/04/14 11:45:34;;;;;;;6.95;2.65;;;;;;;12.28;53.71;95834.06;5018983;28;20062;-79
2023/04/14 11:48:04;;;;;;;4.25;1.60;;;;;;;12.20;54.48;95823.88;5016966;28;20050;-78
2023/04/14 11:50:37;;;;;;;4.47;1.33;;;;;;;12.10;52.76;95813.84;5017405;28;20058;-80